Time;durP1;ratioP1;P1;durP2;ratioP2;P2;SDS_P1;SDS_P2;PMS_P1;PMS_P2;Temp;Humidity;BMP_temperature;BMP_pressure;BME280_temperature;BME280_humidity;BME280_pressure;Samples;Min_cycle;Max_cycle;Signal;HPM_P1;HPM_P2
2021/11/05 00:02:04;;;;;;;26.65;11.40;;;;;;;5.24;100.00;97682.81;4974873;28;20592;-77
2021/11/05 00:04:29;;;;;;;22.20;10.18;;;;;;;5.21;100.00;97687.94;4974757;28;20114;-77
2021/11/05 00:06:54;;;;;;;23.27;9.80;;;;;;;5.12;100.00;97695.78;4974169;28;20042;-76
2021/11/05 00:09:20;;;;;;;23.35;11.48;;;;;;;5.09;100.00;97695.50;4973176;28;20118;-76
2021/11/05 00:11:45;;;;;;;23.50;10.40;;;;;;;5.15;100.00;97705.28;4974397;28;20427;-76
2021/11/05 00:14:11;;;;;;;25.13;11.30;;;;;;;5.12;100.00;97700.41;4974516;28;20022;-76
2021/11/05 00:16:36;;;;;;;24.27;10.90;;;;;;;5.08;100.00;97696.56;4974504;28;20151;-76
2021/11/05 00:19:03;;;;;;;30.70;11.80;;;;;;;5.13;100.00;97700.16;4974466;28;20027;-76
2021/11/05 00:21:28;;;;;;;24.63;11.27;;;;;;;5.21;100.00;97687.94;4974285;28;20027;-76
2021/11/05 00:23:53;;;;;;;25.98;11.82;;;;;;;5.19;100.00;97696.34;4974172;28;20500;-76
2021/11/05 00:26:19;;;;;;;20.13;10.30;;;;;;;5.17;100.00;97701.22;4965027;28;20020;-77
2021/11/05 00:28:44;;;;;;;22.42;10.98;;;;;;;5.13;100.00;97696.59;4954856;28;20315;-76
2021/11/05 00:31:10;;;;;;;27.60;11.70;;;;;;;5.07;100.00;97690.38;4953884;28;20038;-76
2021/11/05 00:33:35;;;;;;;23.65;11.95;;;;;;;5.10;100.00;97689.84;4953328;28;20031;-77
2021/11/05 00:36:01;;;;;;;25.30;11.20;;;;;;;5.07;100.00;97705.81;4954411;28;20141;-77
2021/11/05 00:38:26;;;;;;;21.13;10.90;;;;;;;5.01;100.00;97694.13;4954808;28;20027;-76
2021/11/05 00:40:52;;;;;;;23.73;11.45;;;;;;;4.92;100.00;97701.13;4954700;28;20023;-76
2021/11/05 00:43:17;;;;;;;23.30;10.73;;;;;;;4.83;100.00;97708.97;4954409;28;20035;-76
2021/11/05 00:45:43;;;;;;;24.90;11.68;;;;;;;4.92;100.00;97698.41;4954940;28;20069;-76
2021/11/05 00:48:09;;;;;;;29.17;12.32;;;;;;;5.03;100.00;97696.56;4954502;29;20031;-76
2021/11/05 00:50:35;;;;;;;31.60;12.50;;;;;;;5.00;100.00;97707.94;4953340;28;20488;-76
2021/11/05 00:53:00;;;;;;;22.92;11.95;;;;;;;4.94;100.00;97717.13;4955246;28;20055;-76
2021/11/05 00:55:26;;;;;;;27.73;10.88;;;;;;;5.00;100.00;97722.31;4956156;28;20041;-77
2021/11/05 00:57:51;;;;;;;25.17;11.70;;;;;;;4.96;100.00;97723.09;4957109;28;20035;-77
2021/11/05 01:00:18;;;;;;;27.77;11.55;;;;;;;4.94;100.00;97723.38;4963147;29;20043;-76
2021/11/05 01:02:45;;;;;;;27.30;13.27;;;;;;;4.94;100.00;97720.66;4965532;28;20395;-77
2021/11/05 01:05:12;;;;;;;30.75;13.57;;;;;;;4.94;100.00;97734.22;4956945;28;20484;-77
2021/11/05 01:07:40;;;;;;;28.48;11.70;;;;;;;4.93;100.00;97734.47;4955041;28;20046;-77
2021/11/05 01:10:07;;;;;;;23.48;11.68;;;;;;;4.93;100.00;97734.47;4955261;28;20082;-77
2021/11/05 01:12:32;;;;;;;30.05;12.10;;;;;;;4.82;100.00;97739.84;4954527;28;20396;-77
2021/11/05 01:14:58;;;;;;;36.38;12.82;;;;;;;4.80;100.00;97746.59;4953239;28;20043;-77
2021/11/05 01:17:23;;;;;;;27.02;12.43;;;;;;;4.87;100.00;97741.75;4954129;28;20102;-76
2021/11/05 01:19:49;;;;;;;20.95;11.60;;;;;;;4.82;100.00;97747.97;4959759;28;20026;-77
2021/11/05 01:22:15;;;;;;;25.30;11.30;;;;;;;4.68;100.00;97737.88;4962818;28;20031;-76
2021/11/05 01:24:40;;;;;;;23.23;11.63;;;;;;;4.69;100.00;97736.81;4963422;28;20054;-77
2021/11/05 01:27:06;;;;;;;25.80;11.88;;;;;;;4.74;100.00;97742.25;4960178;28;20047;-76
2021/11/05 01:29:32;;;;;;;32.67;12.18;;;;;;;4.79;100.00;97731.44;4964844;28;20039;-76
2021/11/05 01:31:57;;;;;;;22.88;11.05;;;;;;;4.77;100.00;97739.81;4960778;28;20388;-76
2021/11/05 01:34:23;;;;;;;27.92;11.40;;;;;;;4.67;100.00;97741.66;4966162;28;20077;-75
2021/11/05 01:36:51;;;;;;;25.73;11.10;;;;;;;4.63;100.00;97732.44;4958841;28;20158;-76
2021/11/05 01:39:16;;;;;;;24.75;11.52;;;;;;;4.63;100.00;97740.56;4953942;28;20428;-76
2021/11/05 01:41:43;;;;;;;25.63;11.57;;;;;;;4.57;100.00;97737.03;4953245;28;20027;-76
2021/11/05 01:44:09;;;;;;;25.13;11.30;;;;;;;4.60;100.00;97736.50;4968156;28;20046;-76
2021/11/05 01:46:41;;;;;;;19.00;9.32;;;;;;;4.62;100.00;97741.63;4955114;28;20027;-76
2021/11/05 01:49:10;;;;;;;19.13;9.30;;;;;;;4.64;100.00;97737.56;4971284;28;20442;-76
2021/11/05 01:51:37;;;;;;;23.13;9.75;;;;;;;4.63;100.00;97746.81;4952950;28;20042;-77
2021/11/05 01:54:04;;;;;;;19.20;9.23;;;;;;;4.65;100.00;97744.63;4955562;28;20031;-76
2021/11/05 01:56:32;;;;;;;17.98;9.30;;;;;;;4.69;100.00;97750.34;4968775;28;20039;-76
2021/11/05 01:58:57;;;;;;;23.77;10.10;;;;;;;4.60;100.00;97752.75;4957345;28;20079;-76
2021/11/05 02:01:22;;;;;;;18.10;8.93;;;;;;;4.69;100.00;97756.59;4967623;28;20122;-76
2021/11/05 02:03:50;;;;;;;20.45;9.18;;;;;;;4.59;100.00;97750.28;4959370;28;20113;-76
2021/11/05 02:06:20;;;;;;;18.38;9.88;;;;;;;4.62;100.00;97753.28;4967430;28;20038;-76
2021/11/05 02:08:50;;;;;;;24.95;10.35;;;;;;;4.60;100.00;97751.94;4960812;28;20069;-76
2021/11/05 02:11:15;;;;;;;21.13;9.77;;;;;;;4.54;100.00;97756.47;4962195;28;20027;-76
2021/11/05 02:13:44;;;;;;;20.92;10.77;;;;;;;4.51;100.00;97756.22;4962376;28;20038;-76
2021/11/05 02:16:10;;;;;;;31.50;10.90;;;;;;;4.52;100.00;97755.94;4960334;28;20039;-76
2021/11/05 02:18:35;;;;;;;27.00;10.68;;;;;;;4.56;100.00;97757.03;4961268;28;20035;-76
2021/11/05 02:21:02;;;;;;;24.38;10.50;;;;;;;4.52;100.00;97766.75;4955873;28;20035;-76
2021/11/05 02:23:28;;;;;;;23.23;10.52;;;;;;;4.52;100.00;97760.53;4966165;28;20018;-77
2021/11/05 02:25:54;;;;;;;24.17;10.02;;;;;;;4.44;100.00;97769.16;4970928;28;20026;-76
2021/11/05 02:28:20;;;;;;;26.58;10.68;;;;;;;4.45;100.00;97777.00;4956295;28;20125;-76
2021/11/05 02:30:47;;;;;;;24.08;10.00;;;;;;;4.40;100.00;97773.44;4968569;28;20034;-76
2021/11/05 02:33:13;;;;;;;29.27;10.65;;;;;;;4.33;100.00;97773.66;4953794;28;20042;-76
2021/11/05 02:35:38;;;;;;;26.10;10.32;;;;;;;4.41;100.00;97780.50;4965384;28;20051;-76
2021/11/05 02:38:04;;;;;;;22.40;10.10;;;;;;;4.33;100.00;97770.97;4959397;28;20468;-76
2021/11/05 02:40:29;;;;;;;24.38;10.68;;;;;;;4.39;100.00;97778.03;4971031;28;20042;-76
2021/11/05 02:42:54;;;;;;;28.08;11.63;;;;;;;4.25;100.00;97772.28;4957843;28;20522;-75
2021/11/05 02:45:20;;;;;;;20.30;9.95;;;;;;;4.27;100.00;97772.81;4952038;28;20521;-76
2021/11/05 02:47:45;;;;;;;20.08;10.43;;;;;;;4.22;100.00;97778.22;4951935;28;20487;-76
2021/11/05 02:50:14;;;;;;;20.00;9.63;;;;;;;4.17;100.00;97786.25;4951947;28;20097;-76
2021/11/05 02:52:40;;;;;;;28.92;10.70;;;;;;;4.21;100.00;97800.91;4952083;28;20094;-76
2021/11/05 02:55:08;;;;;;;17.80;8.93;;;;;;;4.19;100.00;97797.66;4964778;28;20129;-76
2021/11/05 02:57:34;;;;;;;28.08;10.00;;;;;;;4.20;100.00;97801.16;4971476;28;20023;-76
2021/11/05 02:59:59;;;;;;;21.50;9.43;;;;;;;4.22;100.00;97799.03;4971304;28;20523;-76
2021/11/05 03:02:25;;;;;;;18.17;8.35;;;;;;;4.18;100.00;97793.31;4971957;28;20031;-77
2021/11/05 03:04:52;;;;;;;19.02;8.27;;;;;;;4.19;100.00;97796.84;4971826;28;20432;-77
2021/11/05 03:07:18;;;;;;;15.85;7.88;;;;;;;4.06;100.00;97789.97;4971804;28;20382;-76
2021/11/05 03:09:43;;;;;;;17.25;8.27;;;;;;;4.10;100.00;97793.00;4972765;28;20037;-77
2021/11/05 03:12:10;;;;;;;19.00;7.00;;;;;;;4.09;100.00;97794.88;4979748;28;20062;-78
2021/11/05 03:14:38;;;;;;;20.85;7.15;;;;;;;4.07;100.00;97790.78;4977191;28;20061;-76
2021/11/05 03:17:05;;;;;;;17.63;7.78;;;;;;;4.09;100.00;97797.56;4971847;28;20129;-77
2021/11/05 03:19:30;;;;;;;18.23;7.07;;;;;;;4.15;100.00;97798.44;4971709;28;20380;-76
2021/11/05 03:21:56;;;;;;;14.48;6.82;;;;;;;4.16;100.00;97800.91;4971520;28;20041;-76
2021/11/05 03:24:21;;;;;;;15.88;7.28;;;;;;;4.25;100.00;97802.03;4968700;28;20035;-77
2021/11/05 03:26:47;;;;;;;17.38;6.97;;;;;;;4.32;100.00;97816.16;4950614;29;20031;-76
2021/11/05 03:29:13;;;;;;;16.50;7.65;;;;;;;4.30;100.00;97818.31;4952030;28;20551;-76
2021/11/05 03:31:39;;;;;;;21.02;7.75;;;;;;;4.13;100.00;97817.66;4964082;28;20031;-76
2021/11/05 03:34:04;;;;;;;18.40;7.70;;;;;;;4.20;100.00;97818.22;4971589;28;20034;-76
2021/11/05 03:36:31;;;;;;;19.08;8.10;;;;;;;4.26;100.00;97817.19;4970843;28;20139;-76
2021/11/05 03:38:56;;;;;;;18.33;7.40;;;;;;;4.23;100.00;97823.13;4971936;28;20034;-75
2021/11/05 03:41:22;;;;;;;16.27;7.45;;;;;;;4.24;100.00;97818.53;4953001;28;20086;-76
2021/11/05 03:43:48;;;;;;;13.98;7.68;;;;;;;4.23;100.00;97814.19;4954274;28;20027;-76
2021/11/05 03:46:15;;;;;;;20.30;6.78;;;;;;;4.15;100.00;97818.19;4956049;28;20040;-77
2021/11/05 03:48:41;;;;;;;23.52;6.93;;;;;;;4.36;100.00;97832.69;4955790;28;20031;-76
2021/11/05 03:51:08;;;;;;;16.17;6.25;;;;;;;4.35;100.00;97830.28;4955645;28;20027;-76
2021/11/05 03:53:34;;;;;;;14.32;7.03;;;;;;;4.27;100.00;97826.13;4973511;28;20480;-77
2021/11/05 03:55:59;;;;;;;13.90;6.70;;;;;;;4.36;100.00;97837.28;4955120;28;20031;-76
2021/11/05 03:58:25;;;;;;;14.82;7.15;;;;;;;4.40;100.00;97838.41;4955234;28;20082;-77
2021/11/05 04:00:51;;;;;;;19.98;6.80;;;;;;;4.44;100.00;97839.53;4964127;28;20027;-76
2021/11/05 04:03:17;;;;;;;17.95;7.70;;;;;;;4.38;100.00;97841.41;4974181;28;20027;-76
2021/11/05 04:05:42;;;;;;;17.63;7.53;;;;;;;4.25;100.00;97848.06;4974320;28;20053;-76
2021/11/05 04:08:08;;;;;;;15.50;8.40;;;;;;;4.19;100.00;97853.69;4973966;28;20049;-76
2021/11/05 04:10:33;;;;;;;15.80;8.30;;;;;;;4.13;100.00;97858.25;4974382;28;20038;-76
2021/11/05 04:13:01;;;;;;;21.70;11.35;;;;;;;4.16;100.00;97870.44;4974188;28;20027;-76
2021/11/05 04:15:27;;;;;;;21.00;9.68;;;;;;;4.26;100.00;97871.34;4974131;28;20085;-76
2021/11/05 04:17:53;;;;;;;26.65;10.63;;;;;;;4.29;100.00;97870.03;4957547;28;20027;-77
2021/11/05 04:20:18;;;;;;;26.50;9.95;;;;;;;4.28;100.00;97873.78;4954154;28;20031;-75
2021/11/05 04:22:44;;;;;;;27.38;11.18;;;;;;;4.25;100.00;97858.88;4954470;29;20030;-77
2021/11/05 04:25:10;;;;;;;23.75;10.27;;;;;;;4.34;100.00;97883.59;4957846;28;20481;-77
2021/11/05 04:27:36;;;;;;;18.85;10.73;;;;;;;4.39;100.00;97890.94;4972461;28;20073;-76
2021/11/05 04:30:04;;;;;;;22.63;10.10;;;;;;;4.49;100.00;97894.56;4968376;28;20061;-76
2021/11/05 04:32:29;;;;;;;19.52;9.93;;;;;;;4.62;100.00;97891.41;4956159;28;20093;-76
2021/11/05 04:34:54;;;;;;;19.42;9.18;;;;;;;4.56;100.00;97888.94;4955322;28;20039;-77
2021/11/05 04:37:20;;;;;;;23.05;10.43;;;;;;;4.58;100.00;97884.06;4961388;28;20027;-78
2021/11/05 04:39:45;;;;;;;16.25;9.23;;;;;;;4.74;100.00;97888.53;4969492;28;20083;-77
2021/11/05 04:42:11;;;;;;;19.30;9.77;;;;;;;4.72;100.00;97887.97;4969629;28;20034;-76
2021/11/05 04:44:36;;;;;;;23.15;9.52;;;;;;;4.64;100.00;97885.72;4978338;28;20023;-77
2021/11/05 04:47:01;;;;;;;20.75;8.63;;;;;;;4.81;100.00;97903.50;4974385;28;20644;-77
2021/11/05 04:49:27;;;;;;;24.13;10.45;;;;;;;4.82;100.00;97896.19;4974015;28;20023;-76
2021/11/05 04:51:53;;;;;;;18.08;9.52;;;;;;;4.80;100.00;97904.56;4974646;28;20058;-77
2021/11/05 04:54:18;;;;;;;26.05;10.65;;;;;;;4.83;100.00;97900.50;4973694;28;20030;-77
2021/11/05 04:56:45;;;;;;;23.40;9.68;;;;;;;4.85;100.00;97903.78;4960816;28;20103;-76
2021/11/05 04:59:11;;;;;;;18.90;9.57;;;;;;;4.83;100.00;97905.94;4954613;28;20031;-77
2021/11/05 05:01:37;;;;;;;22.25;9.13;;;;;;;4.78;100.00;97914.03;4954784;28;20034;-77
2021/11/05 05:04:03;;;;;;;21.15;8.02;;;;;;;4.70;100.00;97903.66;4953735;28;20023;-76
2021/11/05 05:06:28;;;;;;;15.63;7.90;;;;;;;4.58;100.00;97911.13;4954484;28;20396;-77
2021/11/05 05:08:54;;;;;;;14.73;7.28;;;;;;;4.53;100.00;97909.22;4954810;28;20043;-78
2021/11/05 05:11:19;;;;;;;17.08;7.22;;;;;;;4.65;100.00;97914.47;4955270;28;20086;-77
2021/11/05 05:13:45;;;;;;;20.33;8.60;;;;;;;4.65;100.00;97914.47;4954830;28;20031;-77
2021/11/05 05:16:10;;;;;;;21.48;7.25;;;;;;;4.63;100.00;97924.75;4954903;29;20432;-77
2021/11/05 05:18:36;;;;;;;16.65;7.50;;;;;;;4.79;100.00;97929.22;4954984;28;20135;-77
2021/11/05 05:21:01;;;;;;;22.60;7.82;;;;;;;4.98;100.00;97926.91;4955863;28;20518;-77
2021/11/05 05:23:27;;;;;;;14.85;8.15;;;;;;;5.12;100.00;97928.09;4961469;28;20119;-77
2021/11/05 05:25:52;;;;;;;20.00;8.95;;;;;;;5.12;100.00;97934.34;4957908;28;20038;-77
2021/11/05 05:28:18;;;;;;;27.50;9.82;;;;;;;5.10;100.00;97941.91;4954817;28;20039;-78
2021/11/05 05:30:43;;;;;;;28.42;10.80;;;;;;;5.13;100.00;97954.94;4955833;28;20041;-77
2021/11/05 05:33:08;;;;;;;20.60;9.95;;;;;;;5.13;100.00;97949.53;4955976;28;20114;-78
2021/11/05 05:35:34;;;;;;;16.20;8.50;;;;;;;5.15;100.00;97955.50;4957340;28;20134;-77
2021/11/05 05:37:59;;;;;;;22.52;8.40;;;;;;;5.17;100.00;97953.34;4958054;28;20605;-77
2021/11/05 05:40:25;;;;;;;17.23;8.48;;;;;;;5.16;100.00;97968.00;4953303;29;20035;-77
2021/11/05 05:42:51;;;;;;;21.13;8.68;;;;;;;5.14;100.00;97959.28;4953132;29;20027;-77
2021/11/05 05:45:17;;;;;;;19.05;8.52;;;;;;;5.12;100.00;97977.72;4954834;28;20037;-77
2021/11/05 05:47:43;;;;;;;20.48;9.38;;;;;;;4.90;100.00;97985.13;4953890;28;20050;-77
2021/11/05 05:50:12;;;;;;;16.50;9.20;;;;;;;4.93;100.00;97979.19;4954655;28;20031;-76
2021/11/05 05:52:38;;;;;;;22.05;9.90;;;;;;;5.11;100.00;97997.75;4954514;28;20078;-77
2021/11/05 05:55:07;;;;;;;19.92;9.63;;;;;;;5.16;100.00;97992.38;4954491;28;20031;-77
2021/11/05 05:57:32;;;;;;;19.73;9.27;;;;;;;5.27;100.00;97995.97;4954185;28;20086;-77
2021/11/05 05:59:59;;;;;;;25.02;10.48;;;;;;;5.27;100.00;97999.50;4954309;29;20370;-77
2021/11/05 06:02:27;;;;;;;23.77;10.10;;;;;;;5.36;100.00;98006.06;4954163;29;20063;-76
2021/11/05 06:04:53;;;;;;;25.50;10.57;;;;;;;5.44;100.00;98007.50;4954254;28;20031;-77
2021/11/05 06:07:18;;;;;;;22.65;11.60;;;;;;;5.43;100.00;98002.31;4953891;28;20041;-77
2021/11/05 06:09:43;;;;;;;22.92;10.75;;;;;;;5.59;100.00;98004.88;4954033;29;20027;-77
2021/11/05 06:12:09;;;;;;;23.60;10.25;;;;;;;5.57;100.00;97996.19;4952719;28;20582;-78
2021/11/05 06:14:34;;;;;;;25.20;10.30;;;;;;;5.66;100.00;98004.66;4963904;28;20023;-76
2021/11/05 06:17:00;;;;;;;23.58;10.68;;;;;;;5.65;100.00;98019.28;4953469;28;20066;-77
2021/11/05 06:19:26;;;;;;;24.52;11.25;;;;;;;5.67;100.00;98025.28;4963154;28;20492;-78
2021/11/05 06:21:52;;;;;;;22.27;10.70;;;;;;;5.67;100.00;98034.22;4972350;28;20391;-77
2021/11/05 06:24:17;;;;;;;34.75;11.40;;;;;;;5.76;100.00;98024.50;4972438;28;20030;-77
2021/11/05 06:26:43;;;;;;;24.08;10.43;;;;;;;5.75;100.00;98022.06;4972804;28;20026;-77
2021/11/05 06:29:08;;;;;;;22.70;9.65;;;;;;;5.86;100.00;98026.50;4972795;28;20388;-77
2021/11/05 06:31:34;;;;;;;26.15;11.02;;;;;;;5.89;100.00;98036.81;4963313;28;20031;-77
2021/11/05 06:34:01;;;;;;;23.25;10.25;;;;;;;5.94;100.00;98039.56;4953745;28;20031;-78
2021/11/05 06:36:26;;;;;;;26.73;10.60;;;;;;;6.12;100.00;98054.59;4953434;28;20058;-78
2021/11/05 06:38:52;;;;;;;23.98;13.00;;;;;;;6.19;100.00;98060.59;4953920;28;20027;-78
2021/11/05 06:41:19;;;;;;;31.13;11.73;;;;;;;6.22;100.00;98054.66;4953396;29;20074;-77
2021/11/05 06:43:45;;;;;;;28.00;11.55;;;;;;;6.24;100.00;98056.00;4953299;28;20486;-77
2021/11/05 06:46:11;;;;;;;21.45;11.38;;;;;;;6.30;100.00;98049.50;4954608;29;20114;-78
2021/11/05 06:48:37;;;;;;;20.52;10.68;;;;;;;6.32;100.00;98060.13;4953316;28;20035;-77
2021/11/05 06:51:03;;;;;;;28.92;10.20;;;;;;;6.35;100.00;98073.19;4952658;28;20083;-78
2021/11/05 06:53:28;;;;;;;22.95;11.60;;;;;;;6.35;100.00;98084.88;4953212;29;20086;-77
2021/11/05 06:55:54;;;;;;;18.58;10.75;;;;;;;6.43;100.00;98087.06;4952924;28;20053;-77
2021/11/05 06:58:20;;;;;;;17.98;9.80;;;;;;;6.50;100.00;98102.28;4963440;28;20014;-78
2021/11/05 07:00:47;;;;;;;23.00;9.73;;;;;;;6.62;100.00;98101.00;4979521;28;20020;-76
2021/11/05 07:03:13;;;;;;;23.08;13.15;;;;;;;6.70;100.00;98119.53;4979167;28;20064;-76
2021/11/05 07:05:38;;;;;;;27.48;13.27;;;;;;;6.74;100.00;98119.78;4977559;28;20023;-76
2021/11/05 07:08:04;;;;;;;25.70;13.52;;;;;;;6.72;100.00;98130.09;4979420;28;20054;-78
2021/11/05 07:10:30;;;;;;;35.15;14.30;;;;;;;6.77;100.00;98138.28;4978432;28;20012;-77
2021/11/05 07:12:56;;;;;;;25.88;13.75;;;;;;;6.83;100.00;98132.59;4978798;28;20043;-78
2021/11/05 07:15:21;;;;;;;29.25;15.88;;;;;;;6.83;100.00;98142.63;4968998;28;20043;-80
2021/11/05 07:17:47;;;;;;;27.05;14.02;;;;;;;6.75;100.00;98151.31;4981293;28;20023;-81
2021/11/05 07:20:14;;;;;;;30.10;14.75;;;;;;;6.57;100.00;98146.34;4981855;28;20086;-80
2021/11/05 07:22:41;;;;;;;28.30;15.05;;;;;;;6.42;100.00;98142.47;4972795;28;20035;-79
2021/11/05 07:25:08;;;;;;;29.95;14.80;;;;;;;6.52;100.00;98157.19;4966718;29;20074;-76
2021/11/05 07:27:33;;;;;;;25.50;13.05;;;;;;;6.46;100.00;98164.50;4961612;28;20031;-77
2021/11/05 07:29:59;;;;;;;26.83;13.45;;;;;;;6.47;100.00;98158.81;4958849;29;20033;-78
2021/11/05 07:32:25;;;;;;;21.00;11.73;;;;;;;6.73;100.00;98172.53;4966939;29;20018;-77
2021/11/05 07:34:54;;;;;;;25.70;12.05;;;;;;;6.77;100.00;98174.44;4982411;28;20051;-78
2021/11/05 07:37:20;;;;;;;24.05;11.63;;;;;;;6.90;100.00;98173.13;4982576;28;20029;-78
2021/11/05 07:39:48;;;;;;;24.10;12.52;;;;;;;7.06;100.00;98177.53;4981637;28;20007;-79
2021/11/05 07:42:14;;;;;;;22.17;11.57;;;;;;;7.19;100.00;98182.47;4982539;28;20043;-77
2021/11/05 07:44:41;;;;;;;22.88;11.50;;;;;;;7.27;100.00;98187.38;4981014;28;20031;-80
2021/11/05 07:47:07;;;;;;;27.70;12.10;;;;;;;7.28;100.00;98191.75;4981174;28;20087;-80
2021/11/05 07:49:33;;;;;;;25.65;11.43;;;;;;;7.33;100.00;98190.97;4982165;28;20028;-79
2021/11/05 07:52:00;;;;;;;38.15;12.93;;;;;;;7.28;100.00;98193.66;4982542;28;20035;-78
2021/11/05 08:07:38;;;;;;;21.20;8.90;;;;;;;7.80;100.00;98183.38;5919376;23;19998;-79
2021/11/05 08:10:05;;;;;;;31.08;12.13;;;;;;;7.97;100.00;98237.59;4938613;29;20039;-78
2021/11/05 08:12:31;;;;;;;26.02;11.23;;;;;;;7.61;100.00;98204.06;4943440;29;20036;-78
2021/11/05 08:14:56;;;;;;;22.75;10.18;;;;;;;7.80;100.00;98220.72;4943136;29;20068;-79
2021/11/05 08:17:24;;;;;;;15.60;9.07;;;;;;;7.71;100.00;98203.25;4959751;29;20055;-74
2021/11/05 08:19:50;;;;;;;18.77;8.18;;;;;;;7.63;100.00;98201.06;4961452;29;20035;-80
2021/11/05 08:22:17;;;;;;;26.80;8.73;;;;;;;7.79;100.00;98208.16;4961951;29;20020;-79
2021/11/05 08:24:43;;;;;;;21.70;8.25;;;;;;;7.73;100.00;98209.25;4961499;29;20016;-78
2021/11/05 08:27:09;;;;;;;22.15;9.73;;;;;;;7.76;100.00;98206.00;4961893;29;20012;-79
2021/11/05 08:29:36;;;;;;;19.17;8.57;;;;;;;7.84;100.00;98195.38;4959465;29;20011;-79
2021/11/05 08:32:02;;;;;;;15.57;9.10;;;;;;;8.09;100.00;98219.06;4961912;29;20004;-78
2021/11/05 08:34:28;;;;;;;18.65;8.52;;;;;;;8.21;100.00;98211.44;4951118;29;20008;-78
2021/11/05 08:36:53;;;;;;;17.90;8.00;;;;;;;8.51;100.00;98257.78;4943079;29;20012;-79
2021/11/05 08:39:19;;;;;;;17.50;7.85;;;;;;;8.28;100.00;98219.34;4943173;29;20046;-79
2021/11/05 08:41:45;;;;;;;17.08;7.93;;;;;;;8.40;100.00;98226.16;4950130;29;20012;-80
2021/11/05 08:44:11;;;;;;;22.20;7.68;;;;;;;8.52;100.00;98244.97;4944775;29;20043;-80
2021/11/05 08:46:38;;;;;;;14.43;7.20;;;;;;;8.61;100.00;98249.56;4942852;29;20019;-79
2021/11/05 08:49:13;;;;;;;16.88;6.43;;;;;;;8.40;100.00;98237.06;4942867;29;20016;-79
2021/11/05 08:51:42;;;;;;;17.52;7.70;;;;;;;8.36;100.00;98230.53;4942261;29;20020;-79
2021/11/05 08:54:08;;;;;;;12.25;6.60;;;;;;;8.48;100.00;98252.06;4942204;29;20020;-81
2021/11/05 08:56:33;;;;;;;16.40;7.15;;;;;;;8.64;100.00;98271.94;4942084;29;20027;-79
2021/11/05 08:59:00;;;;;;;20.30;7.80;;;;;;;8.36;100.00;98229.72;4942639;29;20088;-81
2021/11/05 09:01:26;;;;;;;13.50;7.38;;;;;;;8.69;100.00;98285.56;4942369;29;20024;-81
2021/11/05 09:03:54;;;;;;;17.63;6.63;;;;;;;8.31;100.00;98256.97;4951018;29;20012;-80
2021/11/05 09:06:21;;;;;;;15.38;7.10;;;;;;;8.58;100.00;98282.03;4960409;29;20027;-79
2021/11/05 09:08:49;;;;;;;18.08;7.75;;;;;;;8.45;100.00;98253.44;4961366;29;20066;-82
2021/11/05 09:11:15;;;;;;;18.27;6.30;;;;;;;8.85;100.00;98295.34;4961354;29;20016;-80
2021/11/05 09:13:43;;;;;;;14.23;6.60;;;;;;;8.82;100.00;98276.81;4961392;29;20019;-79
2021/11/05 09:16:09;;;;;;;20.30;7.15;;;;;;;9.04;100.00;98299.13;4976766;28;20015;-81
2021/11/05 09:18:34;;;;;;;16.52;8.63;;;;;;;9.12;99.50;98306.72;4961240;29;20051;-79
2021/11/05 09:21:01;;;;;;;16.63;6.70;;;;;;;8.88;98.66;98276.53;4957506;29;20016;-80
2021/11/05 09:23:27;;;;;;;15.05;7.13;;;;;;;8.78;99.03;98292.09;4940305;29;20028;-81
2021/11/05 09:25:56;;;;;;;21.88;7.45;;;;;;;8.88;97.63;98270.25;4942286;29;20053;-78
2021/11/05 09:28:22;;;;;;;16.10;6.03;;;;;;;8.77;96.46;98274.09;4941219;29;20113;-80
2021/11/05 09:30:47;;;;;;;12.63;6.85;;;;;;;8.82;96.06;98283.09;4941648;29;20024;-81
2021/11/05 09:33:13;;;;;;;12.70;5.55;;;;;;;9.16;100.00;98283.25;4942940;29;20008;-79
2021/11/05 09:35:39;;;;;;;15.05;5.85;;;;;;;9.43;100.00;98291.88;4959813;29;20065;-79
2021/11/05 09:38:05;;;;;;;13.23;6.03;;;;;;;9.15;95.90;98289.81;4961363;29;20012;-78
2021/11/05 09:40:30;;;;;;;14.98;6.25;;;;;;;9.20;95.19;98306.19;4947931;29;20019;-81
2021/11/05 09:42:58;;;;;;;12.25;6.90;;;;;;;9.29;97.23;98309.16;4941569;29;20048;-81
2021/11/05 09:45:25;;;;;;;12.95;5.68;;;;;;;9.10;93.64;98307.03;4941216;29;20100;-82
2021/11/05 09:47:51;;;;;;;10.25;6.03;;;;;;;9.11;95.21;98318.75;4943923;29;20890;-82
2021/11/05 09:50:20;;;;;;;15.27;5.53;;;;;;;9.07;94.93;98321.22;4957897;29;20016;-81
2021/11/05 09:52:47;;;;;;;21.02;6.25;;;;;;;9.31;93.97;98367.00;4941722;29;20062;-81
2021/11/05 09:55:14;;;;;;;17.50;6.55;;;;;;;9.02;94.12;98313.03;4940066;29;20052;-80
2021/11/05 09:57:40;;;;;;;13.05;5.85;;;;;;;9.25;94.31;98336.19;4939921;29;20047;-79
2021/11/05 10:00:08;;;;;;;14.23;6.32;;;;;;;9.26;94.26;98312.44;4939063;29;20071;-81
2021/11/05 10:02:34;;;;;;;14.65;6.28;;;;;;;9.44;93.67;98334.47;4939947;29;20052;-81
2021/11/05 10:05:01;;;;;;;15.10;6.03;;;;;;;9.31;93.89;98328.78;4941674;29;20034;-79
2021/11/05 10:07:29;;;;;;;15.25;6.20;;;;;;;9.27;94.03;98344.09;4940732;29;20052;-79
2021/11/05 10:09:57;;;;;;;11.35;6.00;;;;;;;9.01;94.21;98337.88;4940371;29;20107;-80
2021/11/05 10:12:28;;;;;;;15.93;5.82;;;;;;;8.96;95.25;98332.41;4940843;29;20020;-81
2021/11/05 10:14:57;;;;;;;13.15;5.82;;;;;;;8.79;95.98;98326.44;4941244;29;20019;-78
2021/11/05 10:17:23;;;;;;;14.88;6.47;;;;;;;8.85;96.88;98330.81;4941472;29;20076;-79
2021/11/05 10:20:02;;;;;;;19.15;6.85;;;;;;;9.07;96.29;98334.88;4941349;29;20012;-79
2021/11/05 10:22:52;;;;;;;16.20;6.82;;;;;;;9.15;95.52;98368.94;4956736;29;20087;-81
2021/11/05 10:25:18;;;;;;;11.85;6.10;;;;;;;9.21;95.87;98381.50;4966270;28;20020;-79
2021/11/05 10:27:43;;;;;;;12.98;6.57;;;;;;;9.26;96.50;98381.50;4960263;29;20055;-80
2021/11/05 10:30:10;;;;;;;14.13;6.10;;;;;;;9.11;94.31;98352.31;4960350;29;20022;-79
2021/11/05 10:32:40;;;;;;;15.50;6.05;;;;;;;9.25;94.86;98357.19;4960084;29;20048;-79
2021/11/05 10:35:17;;;;;;;11.75;5.22;;;;;;;9.19;91.66;98386.41;4959929;29;20050;-82
2021/11/05 10:37:42;;;;;;;11.40;5.80;;;;;;;8.89;94.98;98345.53;4960227;29;20027;-81
2021/11/05 10:40:11;;;;;;;11.55;5.75;;;;;;;8.94;94.76;98348.25;4960292;29;20028;-80
2021/11/05 10:42:42;;;;;;;11.50;4.82;;;;;;;8.79;92.31;98348.28;4959758;29;20019;-80
2021/11/05 10:45:25;;;;;;;13.93;4.72;;;;;;;8.76;91.59;98348.81;4956678;29;20008;-81
2021/11/05 10:47:54;;;;;;;10.20;4.78;;;;;;;8.92;92.51;98388.63;4959294;29;20036;-80
2021/11/05 10:50:32;;;;;;;9.55;4.32;;;;;;;8.64;91.84;98365.47;4959167;29;20038;-79
2021/11/05 10:53:04;;;;;;;12.90;5.40;;;;;;;8.37;96.89;98352.06;4959401;29;20079;-82
2021/11/05 10:55:55;;;;;;;10.32;4.38;;;;;;;8.49;94.69;98344.44;4959485;29;20015;-80
2021/11/05 10:58:23;;;;;;;9.02;4.00;;;;;;;8.68;94.49;98384.84;4959400;29;20031;-80
2021/11/05 11:00:53;;;;;;;22.38;5.70;;;;;;;8.40;95.57;98346.09;4959782;29;20028;-81
2021/11/05 11:03:25;;;;;;;8.15;3.30;;;;;;;8.41;94.46;98341.47;4959648;29;20019;-80
2021/11/05 11:05:54;;;;;;;7.55;3.40;;;;;;;8.41;95.78;98342.28;4959822;29;20011;-81
2021/11/05 11:08:35;;;;;;;7.07;3.42;;;;;;;8.58;96.32;98351.00;4959183;29;20070;-80
2021/11/05 11:11:21;;;;;;;5.43;2.65;;;;;;;8.56;94.43;98346.91;4960162;29;20032;-81
2021/11/05 11:13:49;;;;;;;7.60;2.50;;;;;;;8.67;92.99;98339.56;4946617;29;20063;-80
2021/11/05 11:16:28;;;;;;;5.43;2.88;;;;;;;8.78;94.83;98347.44;4959250;29;20012;-80
2021/11/05 11:19:04;;;;;;;6.03;2.60;;;;;;;9.00;93.52;98366.25;4959696;29;20024;-80
2021/11/05 11:21:39;;;;;;;;;;;;;;;9.21;92.94;98386.94;4959438;29;20020;-81
2021/11/05 11:24:08;;;;;;;5.88;2.63;;;;;;;9.24;90.81;98389.13;4959004;29;19907;-80
2021/11/05 11:26:36;;;;;;;8.75;2.92;;;;;;;9.28;90.21;98362.91;4959133;29;20018;-79
2021/11/05 11:29:03;;;;;;;7.43;2.60;;;;;;;9.19;91.12;98342.75;4959163;29;20046;-81
2021/11/05 11:31:29;;;;;;;6.07;2.92;;;;;;;9.24;90.64;98340.00;4940441;29;20088;-80
2021/11/05 11:34:02;;;;;;;6.40;3.00;;;;;;;9.40;90.47;98347.03;4951914;29;20019;-81
2021/11/05 11:36:29;;;;;;;7.95;2.92;;;;;;;9.20;90.29;98328.03;4958558;29;20071;-81